createdAt,value
2019-01-27T00:01:10.210Z,62.00
2019-01-27T00:03:41.416Z,62.20
2019-01-27T00:06:14.979Z,62.50
2019-01-27T00:08:46.050Z,62.70
2019-01-27T00:11:18.042Z,62.80
2019-01-27T00:13:49.070Z,62.80
2019-01-27T00:16:20.173Z,62.80
2019-01-27T00:18:51.221Z,62.80
2019-01-27T00:21:22.237Z,63.00
2019-01-27T00:23:53.375Z,63.20
2019-01-27T00:26:24.524Z,63.20
2019-01-27T00:28:55.566Z,63.00
2019-01-27T00:31:26.558Z,62.80
2019-01-27T00:33:57.683Z,62.80
2019-01-27T00:36:28.517Z,62.80
2019-01-27T00:38:59.329Z,62.70
2019-01-27T00:41:30.403Z,62.80
2019-01-27T00:44:01.449Z,62.80
2019-01-27T00:46:32.432Z,63.10
2019-01-27T00:49:04.426Z,63.50
2019-01-27T00:51:35.399Z,64.10
2019-01-27T00:54:06.846Z,64.30
2019-01-27T00:56:37.907Z,64.70
2019-01-27T00:59:08.816Z,64.80
2019-01-27T01:01:40.068Z,64.80
2019-01-27T01:04:10.913Z,64.80
2019-01-27T01:06:42.079Z,64.40
2019-01-27T01:09:13.582Z,64.50
2019-01-27T01:11:44.412Z,64.80
2019-01-27T01:14:15.284Z,64.90
2019-01-27T01:16:46.364Z,64.90
2019-01-27T01:19:17.281Z,64.80
2019-01-27T01:21:48.258Z,64.90
2019-01-27T01:24:19.108Z,65.00
2019-01-27T01:26:50.274Z,65.20
2019-01-27T01:29:21.117Z,65.50
2019-01-27T01:31:52.009Z,65.60
2019-01-27T01:34:23.029Z,65.70
2019-01-27T01:36:53.927Z,65.70
2019-01-27T01:39:24.727Z,65.60
2019-01-27T01:41:55.810Z,65.60
2019-01-27T01:44:26.646Z,65.70
2019-01-27T01:46:57.473Z,65.50
2019-01-27T01:49:29.415Z,65.60
2019-01-27T01:52:00.353Z,65.80
2019-01-27T01:54:31.435Z,65.60
2019-01-27T01:57:02.293Z,65.60
2019-01-27T01:59:33.149Z,65.60
2019-01-27T02:02:04.143Z,65.50
2019-01-27T02:04:35.008Z,65.40
2019-01-27T02:07:06.349Z,65.30
2019-01-27T02:09:37.495Z,65.10
2019-01-27T02:12:08.479Z,65.20
2019-01-27T02:14:40.601Z,65.20
2019-01-27T02:17:11.533Z,65.40
2019-01-27T02:19:42.485Z,65.40
2019-01-27T02:22:13.406Z,65.40
2019-01-27T02:24:44.386Z,65.20
2019-01-27T02:27:15.588Z,65.40
2019-01-27T02:29:46.388Z,65.60
2019-01-27T02:32:17.307Z,65.80
2019-01-27T02:34:49.159Z,65.80
2019-01-27T02:37:20.011Z,65.70
2019-01-27T02:39:50.862Z,65.90
2019-01-27T02:42:21.759Z,65.90
2019-01-27T02:44:52.632Z,65.90
2019-01-27T02:47:23.581Z,65.90
2019-01-27T02:49:54.414Z,66.10
2019-01-27T02:52:25.414Z,66.10
2019-01-27T02:54:56.464Z,65.90
2019-01-27T02:57:27.559Z,65.60
2019-01-27T02:59:58.623Z,65.70
2019-01-27T03:02:29.648Z,65.90
2019-01-27T03:05:02.136Z,66.00
2019-01-27T03:07:38.893Z,65.70
2019-01-27T03:10:13.306Z,65.60
2019-01-27T03:12:44.162Z,65.90
2019-01-27T03:15:19.439Z,66.00
2019-01-27T03:17:51.088Z,66.00
2019-01-27T03:20:22.044Z,66.00
2019-01-27T03:22:52.999Z,66.10
2019-01-27T03:25:23.841Z,66.20
2019-01-27T03:27:54.829Z,66.20
2019-01-27T03:30:26.344Z,66.10
2019-01-27T03:32:57.389Z,66.20
2019-01-27T03:35:28.242Z,66.20
2019-01-27T03:37:59.369Z,66.20
2019-01-27T03:40:30.350Z,66.10
2019-01-27T03:43:01.363Z,66.20
2019-01-27T03:45:32.327Z,66.20
2019-01-27T03:48:03.687Z,66.10
2019-01-27T03:50:34.587Z,66.20
2019-01-27T03:53:05.900Z,66.90
2019-01-27T03:55:37.033Z,66.40
2019-01-27T03:58:08.039Z,66.40
2019-01-27T04:00:39.054Z,66.40
2019-01-27T04:03:10.136Z,66.30
2019-01-27T04:05:40.894Z,66.30
2019-01-27T04:08:12.500Z,66.50
2019-01-27T04:10:44.753Z,66.50
2019-01-27T04:13:15.873Z,66.40
2019-01-27T04:15:46.973Z,66.40
2019-01-27T04:18:18.208Z,66.20
2019-01-27T04:20:49.327Z,66.20
2019-01-27T04:23:20.249Z,66.10
2019-01-27T04:25:51.693Z,66.00
2019-01-27T04:28:22.835Z,65.90
2019-01-27T04:30:53.604Z,66.00
2019-01-27T04:33:25.568Z,66.10
2019-01-27T04:35:56.398Z,66.10
2019-01-27T04:38:27.360Z,66.00
2019-01-27T04:40:58.166Z,66.00
2019-01-27T04:43:29.308Z,66.00
2019-01-27T04:46:00.208Z,66.10
2019-01-27T04:48:31.249Z,66.30
2019-01-27T04:51:02.212Z,66.30
2019-01-27T04:53:33.351Z,66.10
2019-01-27T04:56:05.256Z,66.10
2019-01-27T04:58:36.089Z,66.00
2019-01-27T05:01:07.372Z,66.00
2019-01-27T05:03:49.365Z,66.00
2019-01-27T05:06:20.274Z,65.80
2019-01-27T05:08:51.329Z,65.70
2019-01-27T05:11:22.230Z,65.60
2019-01-27T05:13:53.188Z,65.50
2019-01-27T05:16:24.117Z,65.50
2019-01-27T05:18:54.967Z,65.40
2019-01-27T05:21:26.859Z,65.30
2019-01-27T05:23:57.805Z,65.20
2019-01-27T05:26:28.614Z,65.10
2019-01-27T05:28:59.503Z,65.30
2019-01-27T05:31:30.415Z,65.20
2019-01-27T05:34:01.276Z,65.30
2019-01-27T05:36:32.321Z,65.40
2019-01-27T05:39:03.884Z,65.30
2019-01-27T05:41:34.865Z,65.40
2019-01-27T05:44:05.996Z,65.40
2019-01-27T05:46:36.789Z,65.50
2019-01-27T05:49:07.941Z,65.60
2019-01-27T05:51:38.933Z,65.50
2019-01-27T05:54:09.904Z,65.70
2019-01-27T05:56:41.006Z,65.50
2019-01-27T05:59:11.873Z,65.50
2019-01-27T06:01:43.261Z,65.40
2019-01-27T06:04:14.601Z,65.60
2019-01-27T06:06:45.616Z,65.80
2019-01-27T06:09:16.520Z,65.80
2019-01-27T06:11:47.547Z,65.90
2019-01-27T06:14:18.369Z,65.90
2019-01-27T06:16:49.292Z,65.80
2019-01-27T06:19:20.220Z,66.00
2019-01-27T06:21:51.078Z,65.80
2019-01-27T06:24:22.394Z,65.80
2019-01-27T06:26:53.372Z,65.90
2019-01-27T06:29:24.377Z,65.90
2019-01-27T06:31:55.567Z,65.60
2019-01-27T06:34:26.696Z,65.60
2019-01-27T06:36:57.593Z,65.60
2019-01-27T06:39:28.649Z,65.50
2019-01-27T06:41:59.736Z,65.50
2019-01-27T06:44:30.807Z,65.50
2019-01-27T06:47:02.009Z,65.70
2019-01-27T06:49:33.097Z,65.70
2019-01-27T06:52:04.157Z,65.70
2019-01-27T06:54:35.565Z,66.50
2019-01-27T06:57:06.673Z,65.70
2019-01-27T06:59:45.457Z,65.80
2019-01-27T07:02:41.441Z,65.80
2019-01-27T07:05:49.853Z,66.00
2019-01-27T07:08:51.633Z,65.90
2019-01-27T07:11:28.665Z,65.70
2019-01-27T07:14:30.095Z,65.70
2019-01-27T07:17:18.420Z,65.70
2019-01-27T07:20:10.709Z,65.80
2019-01-27T07:22:54.825Z,65.90
2019-01-27T07:25:38.802Z,65.70
2019-01-27T07:28:31.807Z,65.90
2019-01-27T07:31:30.448Z,66.00
2019-01-27T07:34:26.104Z,66.00
2019-01-27T07:37:21.566Z,66.10
2019-01-27T07:40:20.372Z,66.00
2019-01-27T07:43:16.135Z,66.10
2019-01-27T07:46:16.650Z,66.20
2019-01-27T07:49:12.413Z,66.30
2019-01-27T07:52:00.959Z,66.30
2019-01-27T07:55:05.628Z,66.10
2019-01-27T07:58:01.272Z,66.00
2019-01-27T08:00:45.510Z,65.90
2019-01-27T08:03:31.927Z,65.80
2019-01-27T08:06:19.656Z,65.50
2019-01-27T08:09:12.742Z,65.30
2019-01-27T08:12:17.453Z,65.10
2019-01-27T08:15:12.357Z,65.10
2019-01-27T08:18:02.991Z,65.00
2019-01-27T08:20:48.710Z,64.80
2019-01-27T08:23:30.125Z,64.90
2019-01-27T08:26:15.556Z,64.60
2019-01-27T08:29:05.474Z,64.30
2019-01-27T08:32:01.353Z,64.40
2019-01-27T08:34:50.012Z,64.20
2019-01-27T08:37:40.013Z,64.10
2019-01-27T08:40:32.131Z,64.30
2019-01-27T08:43:20.553Z,64.20
2019-01-27T08:46:02.014Z,64.10
2019-01-27T08:48:33.099Z,64.20
2019-01-27T08:51:04.388Z,64.10
2019-01-27T08:53:35.509Z,64.20
2019-01-27T08:56:06.837Z,64.20
2019-01-27T08:58:39.123Z,63.90
2019-01-27T09:01:41.258Z,63.90
2019-01-27T09:04:19.054Z,64.00
2019-01-27T09:07:12.508Z,63.90
2019-01-27T09:10:03.275Z,63.80
2019-01-27T09:12:46.068Z,63.70
2019-01-27T09:15:50.999Z,63.20
2019-01-27T09:18:34.318Z,63.10
2019-01-27T09:21:27.018Z,62.90
2019-01-27T09:24:18.263Z,63.00
2019-01-27T09:26:59.262Z,62.40
2019-01-27T09:29:42.478Z,62.00
2019-01-27T09:32:28.390Z,61.90
2019-01-27T09:35:16.611Z,61.80
2019-01-27T09:38:02.230Z,61.50
2019-01-27T09:40:39.359Z,61.40
2019-01-27T09:43:30.192Z,61.60
2019-01-27T09:46:11.519Z,61.40
2019-01-27T09:48:53.401Z,61.10
2019-01-27T09:51:30.377Z,61.20
2019-01-27T09:54:23.039Z,61.00
2019-01-27T09:57:25.036Z,60.60
2019-01-27T10:00:04.496Z,60.60
2019-01-27T10:02:57.889Z,60.80
2019-01-27T10:05:37.463Z,60.60
2019-01-27T10:08:26.379Z,60.80
2019-01-27T10:11:17.169Z,60.80
2019-01-27T10:14:01.129Z,61.10
2019-01-27T10:17:12.344Z,60.80
2019-01-27T10:20:08.724Z,60.90
2019-01-27T10:23:10.546Z,60.80
2019-01-27T10:25:59.249Z,60.70
2019-01-27T10:28:47.885Z,60.70
2019-01-27T10:31:41.088Z,60.80
2019-01-27T10:34:40.406Z,60.90
2019-01-27T10:37:33.128Z,60.80
2019-01-27T10:40:14.666Z,60.80
2019-01-27T10:43:11.193Z,60.90
2019-01-27T10:46:19.217Z,61.00
2019-01-27T10:49:07.680Z,61.00
2019-01-27T10:51:50.037Z,60.70
2019-01-27T10:54:40.309Z,60.40
2019-01-27T10:57:22.367Z,60.00
2019-01-27T11:00:18.260Z,59.60
2019-01-27T11:03:11.882Z,59.30
2019-01-27T11:06:05.848Z,59.30
2019-01-27T11:08:49.021Z,58.90
2019-01-27T11:11:38.625Z,58.80
2019-01-27T11:14:34.214Z,59.20
2019-01-27T11:17:32.281Z,59.20
2019-01-27T11:20:40.032Z,59.30
2019-01-27T11:23:25.656Z,59.50
2019-01-27T11:26:04.287Z,59.50
2019-01-27T11:29:03.173Z,59.50
2019-01-27T11:31:53.404Z,59.60
2019-01-27T11:34:37.972Z,59.70
2019-01-27T11:37:47.342Z,59.60
2019-01-27T11:40:37.238Z,59.40
2019-01-27T11:43:27.464Z,59.60
2019-01-27T11:46:14.014Z,59.40
2019-01-27T11:48:52.627Z,59.70
2019-01-27T11:51:38.147Z,59.90
2019-01-27T11:54:09.432Z,59.70
2019-01-27T11:56:37.249Z,59.80
2019-01-27T11:59:08.889Z,59.80
2019-01-27T12:01:39.795Z,59.90
2019-01-27T12:04:07.625Z,60.30
2019-01-27T12:06:38.866Z,60.20
2019-01-27T12:09:16.225Z,60.60
2019-01-27T12:11:49.988Z,60.80
2019-01-27T12:14:22.031Z,61.30
2019-01-27T12:16:53.537Z,61.60
2019-01-27T12:19:24.501Z,61.80
2019-01-27T12:21:55.876Z,61.90
2019-01-27T12:24:26.900Z,62.30
2019-01-27T12:26:57.754Z,62.50
2019-01-27T12:29:28.911Z,62.80
2019-01-27T12:31:59.885Z,63.00
2019-01-27T12:34:30.778Z,63.10
2019-01-27T12:37:01.573Z,63.00
2019-01-27T12:39:32.402Z,63.00
2019-01-27T12:42:03.339Z,63.20
2019-01-27T12:44:34.062Z,63.20
2019-01-27T12:47:04.875Z,63.30
2019-01-27T12:49:35.748Z,63.60
2019-01-27T12:52:06.642Z,63.50
2019-01-27T12:54:37.488Z,63.30
2019-01-27T12:57:08.365Z,63.20
2019-01-27T12:59:39.076Z,63.00
2019-01-27T13:02:10.117Z,62.80
2019-01-27T13:04:41.073Z,62.70
2019-01-27T13:07:11.927Z,62.40
2019-01-27T13:09:42.871Z,62.60
2019-01-27T13:12:13.678Z,62.60
2019-01-27T13:14:44.596Z,62.70
2019-01-27T13:17:15.407Z,62.90
2019-01-27T13:19:53.714Z,63.10
2019-01-27T13:22:21.342Z,63.20
2019-01-27T13:24:52.399Z,63.30
2019-01-27T13:27:23.488Z,63.30
2019-01-27T13:29:54.347Z,63.40
2019-01-27T13:32:25.293Z,63.60
2019-01-27T13:34:56.370Z,63.60
2019-01-27T13:37:27.466Z,63.90
2019-01-27T13:42:37.426Z,64.20
2019-01-27T13:45:09.856Z,64.40
2019-01-27T13:47:40.651Z,64.80
2019-01-27T13:50:11.915Z,65.00
2019-01-27T13:52:44.138Z,65.30
2019-01-27T13:55:20.926Z,65.40
2019-01-27T13:57:51.795Z,65.60
2019-01-27T14:00:24.903Z,65.70
2019-01-27T14:02:55.994Z,65.80
2019-01-27T14:05:27.180Z,65.80
2019-01-27T14:07:58.091Z,66.00
2019-01-27T14:10:29.299Z,66.30
2019-01-27T14:13:00.281Z,66.30
2019-01-27T14:15:32.912Z,66.50
2019-01-27T14:18:04.315Z,66.70
2019-01-27T14:20:35.207Z,66.80
2019-01-27T14:23:06.890Z,67.00
2019-01-27T14:25:38.596Z,67.20
2019-01-27T14:28:10.410Z,67.30
2019-01-27T14:30:43.399Z,67.50
2019-01-27T14:33:14.743Z,67.60
2019-01-27T14:35:46.107Z,67.90
2019-01-27T14:38:17.678Z,68.00
2019-01-27T14:40:49.277Z,68.10
2019-01-27T14:43:20.559Z,68.00
2019-01-27T14:45:51.986Z,68.00
2019-01-27T14:48:24.085Z,67.90
2019-01-27T14:50:55.655Z,67.90
2019-01-27T14:54:23.750Z,68.00
2019-01-27T14:56:59.377Z,67.90
2019-01-27T14:59:30.822Z,67.80
2019-01-27T15:02:13.434Z,68.00
2019-01-27T15:05:02.755Z,68.10
2019-01-27T15:07:51.096Z,68.30
2019-01-27T15:10:33.712Z,68.30
2019-01-27T15:13:05.739Z,68.40
2019-01-27T15:15:37.190Z,68.40
2019-01-27T15:18:13.688Z,68.50
2019-01-27T15:20:55.602Z,68.60
2019-01-27T15:24:15.271Z,68.70
2019-01-27T15:32:41.327Z,69.10
2019-01-27T15:35:46.363Z,69.20
2019-01-27T15:38:19.707Z,69.20
2019-01-27T15:40:50.986Z,69.30
2019-01-27T15:43:23.646Z,69.50
2019-01-27T15:45:55.082Z,69.70
2019-01-27T15:48:31.839Z,69.80
2019-01-27T15:51:18.256Z,69.90
2019-01-27T15:56:53.951Z,69.70
2019-01-27T15:59:46.594Z,69.60
2019-01-27T16:02:19.358Z,69.30
2019-01-27T16:04:51.255Z,69.40
2019-01-27T16:07:22.815Z,69.10
2019-01-27T16:09:57.385Z,69.10
2019-01-27T16:12:28.380Z,69.30
2019-01-27T16:15:02.526Z,69.20
2019-01-27T16:17:34.138Z,69.20
2019-01-27T16:25:44.460Z,69.10
2019-01-27T16:28:19.554Z,69.10
2019-01-27T16:31:30.761Z,69.10
2019-01-27T16:34:19.620Z,68.90
2019-01-27T16:36:51.490Z,68.80
2019-01-27T16:39:22.733Z,68.90
2019-01-27T16:41:54.952Z,68.90
2019-01-27T16:44:28.511Z,69.10
2019-01-27T16:46:59.487Z,69.10
2019-01-27T16:49:30.286Z,69.10
2019-01-27T16:52:01.155Z,69.10
2019-01-27T16:54:31.975Z,69.10
2019-01-27T16:57:02.804Z,69.00
2019-01-27T16:59:33.695Z,69.00
2019-01-27T17:02:04.631Z,68.90
2019-01-27T17:04:37.740Z,68.70
2019-01-27T17:07:08.915Z,69.00
2019-01-27T17:09:39.675Z,69.10
2019-01-27T17:12:10.618Z,69.00
2019-01-27T17:14:41.389Z,69.20
2019-01-27T17:17:12.321Z,69.30
2019-01-27T17:19:44.475Z,69.30
2019-01-27T17:22:15.586Z,69.20
2019-01-27T17:24:46.478Z,69.20
2019-01-27T17:27:17.375Z,69.20
2019-01-27T17:29:48.159Z,69.20
2019-01-27T17:32:19.191Z,69.40
2019-01-27T17:34:49.980Z,70.10
2019-01-27T17:37:20.837Z,69.30
2019-01-27T17:39:51.742Z,69.20
2019-01-27T17:42:22.666Z,69.00
2019-01-27T17:44:53.435Z,68.90
2019-01-27T17:47:24.416Z,69.00
2019-01-27T17:49:55.274Z,69.00
2019-01-27T17:52:26.196Z,69.10
2019-01-27T17:54:57.021Z,69.10
2019-01-27T17:57:48.851Z,69.40
2019-01-27T18:00:50.671Z,69.30
2019-01-27T18:03:55.459Z,69.40
2019-01-27T18:06:38.505Z,69.50
2019-01-27T18:09:29.530Z,69.30
2019-01-27T18:12:17.696Z,69.40
2019-01-27T18:14:48.587Z,69.40
2019-01-27T18:17:19.401Z,69.40
2019-01-27T18:19:50.331Z,69.60
2019-01-27T18:22:21.176Z,69.70
2019-01-27T18:24:53.124Z,69.80
2019-01-27T18:27:23.916Z,70.20
2019-01-27T18:29:55.762Z,69.90
2019-01-27T18:32:26.707Z,69.80
2019-01-27T18:34:57.556Z,69.90
2019-01-27T18:37:28.479Z,70.00
2019-01-27T18:40:01.393Z,69.80
2019-01-27T18:42:32.602Z,69.80
2019-01-27T18:45:03.733Z,69.80
2019-01-27T18:47:34.547Z,69.80
2019-01-27T18:50:07.467Z,69.80
2019-01-27T18:52:38.256Z,69.90
2019-01-27T18:55:40.942Z,70.00
2019-01-27T18:58:26.769Z,70.00
2019-01-27T19:01:12.974Z,70.00
2019-01-27T19:03:55.799Z,70.10
2019-01-27T19:06:36.030Z,70.00
2019-01-27T19:09:16.501Z,70.10
2019-01-27T19:12:24.105Z,70.30
2019-01-27T19:15:13.853Z,70.30
2019-01-27T19:18:03.373Z,70.30
2019-01-27T19:20:53.113Z,70.20
2019-01-27T19:23:22.846Z,70.30
2019-01-27T19:26:11.097Z,70.30
2019-01-27T19:29:18.645Z,70.40
2019-01-27T19:32:11.389Z,71.30
2019-01-27T19:34:59.307Z,70.70
2019-01-27T19:37:54.946Z,70.90
2019-01-27T19:40:47.724Z,70.90
2019-01-27T19:43:46.497Z,70.90
2019-01-27T19:46:30.502Z,71.20
2019-01-27T19:51:58.632Z,71.30
2019-01-27T19:54:58.386Z,71.40
2019-01-27T19:57:51.008Z,71.60
2019-01-27T20:00:32.736Z,71.70
2019-01-27T20:03:17.006Z,71.60
2019-01-27T20:06:18.423Z,71.70
2019-01-27T20:09:19.901Z,71.70
2019-01-27T20:12:15.864Z,71.80
2019-01-27T20:15:03.900Z,71.70
2019-01-27T20:18:05.686Z,71.70
2019-01-27T20:20:58.201Z,71.80
2019-01-27T20:24:02.679Z,71.70
2019-01-27T20:26:56.262Z,71.70
2019-01-27T20:29:45.558Z,71.90
2019-01-27T20:32:47.522Z,72.00
2019-01-27T20:35:35.931Z,71.90
2019-01-27T20:38:28.882Z,72.00
2019-01-27T20:41:17.989Z,72.00
2019-01-27T20:43:45.928Z,72.00
2019-01-27T20:49:23.620Z,72.00
2019-01-27T20:52:09.357Z,72.00
2019-01-27T20:55:01.854Z,72.10
2019-01-27T20:57:50.914Z,72.10
2019-01-27T21:00:49.496Z,72.40
2019-01-27T21:03:27.346Z,72.20
2019-01-27T21:06:15.527Z,72.20
2019-01-27T21:09:17.136Z,72.30
2019-01-27T21:12:12.714Z,72.30
2019-01-27T21:15:09.857Z,72.20
2019-01-27T21:20:53.589Z,72.10
2019-01-27T21:23:34.825Z,72.00
2019-01-27T21:26:36.263Z,72.00
2019-01-27T21:29:16.957Z,71.90
2019-01-27T21:32:50.162Z,72.00
2019-01-27T21:35:28.806Z,72.10
2019-01-27T21:38:00.066Z,72.10
2019-01-27T21:40:31.690Z,72.00
2019-01-27T21:43:04.701Z,72.00
2019-01-27T21:45:36.106Z,72.10
2019-01-27T21:48:15.796Z,71.80
2019-01-27T21:50:48.829Z,71.70
2019-01-27T21:53:20.598Z,71.90
2019-01-27T21:55:52.230Z,71.80
2019-01-27T21:58:23.536Z,71.90
2019-01-27T22:00:59.496Z,72.00
2019-01-27T22:03:39.226Z,72.00
2019-01-27T22:06:25.616Z,72.10
2019-01-27T22:09:01.262Z,72.20
2019-01-27T22:11:47.999Z,72.30
2019-01-27T22:14:20.930Z,72.40
2019-01-27T22:16:55.209Z,72.60
2019-01-27T22:19:27.009Z,72.40
2019-01-27T22:21:58.590Z,72.20
2019-01-27T22:24:30.088Z,72.10
2019-01-27T22:27:01.520Z,72.20
2019-01-27T22:29:33.292Z,72.20
2019-01-27T22:32:06.980Z,72.10
2019-01-27T22:34:46.539Z,72.10
2019-01-27T22:37:18.142Z,72.00
2019-01-27T22:39:49.026Z,72.10
2019-01-27T22:42:29.442Z,72.80
2019-01-27T22:45:01.080Z,72.10
2019-01-27T22:47:37.007Z,72.20
2019-01-27T22:50:16.486Z,72.20
2019-01-27T22:52:50.416Z,72.20
2019-01-27T22:55:26.326Z,72.20
2019-01-27T22:58:03.058Z,72.30
2019-01-27T23:00:56.758Z,72.10
2019-01-27T23:03:28.844Z,72.10
2019-01-27T23:06:20.018Z,72.20
2019-01-27T23:08:50.891Z,72.20
2019-01-27T23:11:26.806Z,72.20
2019-01-27T23:14:00.864Z,72.20
2019-01-27T23:16:40.541Z,72.20
2019-01-27T23:19:11.577Z,72.20
2019-01-27T23:21:43.344Z,72.50
2019-01-27T23:24:14.944Z,72.60
2019-01-27T23:26:45.760Z,72.60
2019-01-27T23:29:22.908Z,72.70
2019-01-27T23:31:54.418Z,72.80
2019-01-27T23:34:25.438Z,72.90
2019-01-27T23:37:05.943Z,72.90
2019-01-27T23:39:42.476Z,72.80
2019-01-27T23:42:19.067Z,72.80
2019-01-27T23:44:50.032Z,72.90
2019-01-27T23:47:40.307Z,72.90
2019-01-27T23:50:12.733Z,72.90
2019-01-27T23:52:47.942Z,73.00
2019-01-27T23:55:19.202Z,72.80
2019-01-27T23:57:50.481Z,72.80
